Southold, NY (11971)

4:06 AM EDT on August 28, 2014 (GMT -0400)
Sleepy Hollow Southold | Change Station
CLOSE
Current Station
Personal Weather Station
Location: Southold, NY
Elevation: 26 ft
Nearby Weather Stations

Elev 26 ft 41.05 °N, 72.43 °W | Updated 8 minutes ago

Clear
Clear
71.1 °F
Feels Like 74 °F
N
2.0
Wind Variable Wind from WNW
Gusts 6.0 mph

Today
High -- | Low -- °F
--% Chance of Precip.
Yesterday
High -- | Low -- °F
Precip. -- in
6:12 AM 7:28 PM
Waxing Crescent, 7% visible
Pressure 29.84 in
Visibility 10.0 miles
Clouds Clear
Heat Index 74 °F
Dew Point 62 °F
Humidity 72%
Rainfall 0.00 in
Snow Depth Not available.
UV 0 out of 12
Pollen 8.90 out of 12
Air Quality Not available.
Flu Activity Not available.
METAR KFOK 280753Z AUTO 35005KT 10SM CLR 21/18 A2984 RMK AO2 SLP104 T02060183 TSNO

More Conditions Fewer Conditions

Pressure 29.84 in
Visibility 10.0 miles
Clouds Clear
Heat Index 74 °F
Dew Point 62 °F
Humidity 72%
Rainfall 0.00 in
Snow Depth Not available.
UV 0 out of 12
Pollen 8.90 out of 12
Air Quality Not available.
Flu Activity Not available.
METAR KFOK 280753Z AUTO 35005KT 10SM CLR 21/18 A2984 RMK AO2 SLP104 T02060183 TSNO

More Conditions Fewer Conditions

10-Day Weather Forecast

Almanac

Astronomy

Aug. 28, 2014 Rise Set
Actual Time 6:12 AM EDT 7:28 PM EDT
Civil Twilight 5:43 AM EDT 7:57 PM EDT
Nautical Twilight 5:09 AM EDT 8:31 PM EDT
Astronomical Twilight 4:33 AM EDT 9:07 PM EDT
Moon 9:03 AM EDT 8:49 PM EDT
Length of Visible Light 14h 13m
Length of Day
13h 16m
Tomorrow will be 2m 35s shorter.
Waxing Crescent, 7% of the Moon is Illuminated
Today
Waxing Crescent
Sep 2
First Quarter
Sep 8
Full
Sep 15
Last Quarter
Sep 24
New

Today's Extremes

State Highs State Lows

Community

WunderPhotos

Upload Photos

1,747,916 photos uploaded!

Nearby

Air Quality

  Air Quality AQ Index Pollutant
Yesterday Moderate
OZONE
Thursday Good
OZONE
Thursday Good
PM2.5

Snow Depth

Station Depth Elevation
No new snow has been reported.

Earthquake Activity

City Distance Mag. Time & Date
No recent earthquake activity has been reported nearby.
Minimum magnitude displayed is 2.5.

Coastal Water Temperatures

Place Temperature
New London, CT 72.0 °F

Nearby Weather Stations